createdAt,value
2018-05-17T00:02:07.666Z,0.00
2018-05-17T00:03:07.707Z,0.00
2018-05-17T00:04:07.890Z,0.00
2018-05-17T00:05:08.094Z,0.00
2018-05-17T00:06:08.291Z,0.00
2018-05-17T00:07:08.511Z,0.00
2018-05-17T00:08:08.695Z,0.00
2018-05-17T00:09:08.918Z,0.00
2018-05-17T00:10:09.132Z,0.00
2018-05-17T00:11:09.324Z,0.00
2018-05-17T00:12:09.525Z,0.00
2018-05-17T00:13:09.710Z,0.00
2018-05-17T00:14:09.926Z,0.00
2018-05-17T00:15:10.141Z,0.00
2018-05-17T00:16:10.361Z,0.00
2018-05-17T00:17:10.567Z,0.00
2018-05-17T00:18:10.783Z,0.00
2018-05-17T00:19:10.975Z,0.00
2018-05-17T00:20:11.176Z,0.00
2018-05-17T00:21:11.384Z,0.00
2018-05-17T00:22:11.609Z,0.00
2018-05-17T00:24:43.760Z,0.00
2018-05-17T00:25:43.940Z,0.00
2018-05-17T00:26:44.286Z,0.00
2018-05-17T00:27:44.356Z,0.00
2018-05-17T00:28:44.561Z,0.00
2018-05-17T00:29:44.764Z,0.00
2018-05-17T00:30:44.960Z,0.00
2018-05-17T00:31:45.172Z,0.00
2018-05-17T00:32:45.378Z,0.00
2018-05-17T00:33:45.569Z,0.00
2018-05-17T00:34:45.748Z,0.00
2018-05-17T00:35:45.958Z,0.00
2018-05-17T00:36:46.140Z,0.00
2018-05-17T00:37:46.379Z,0.00
2018-05-17T00:38:46.565Z,0.00
2018-05-17T00:39:46.742Z,0.00
2018-05-17T00:40:46.932Z,0.00
2018-05-17T00:41:47.121Z,0.00
2018-05-17T00:42:47.307Z,0.00
2018-05-17T00:43:47.492Z,0.00
2018-05-17T00:44:47.696Z,0.00
2018-05-17T00:45:47.904Z,0.00
2018-05-17T00:46:48.105Z,0.00
2018-05-17T00:47:48.313Z,0.00
2018-05-17T00:48:48.520Z,0.00
2018-05-17T00:49:48.706Z,0.00
2018-05-17T00:50:48.904Z,0.00
2018-05-17T00:51:49.107Z,0.00
2018-05-17T00:52:49.309Z,0.00
2018-05-17T00:53:49.506Z,0.00
2018-05-17T00:54:49.707Z,0.00
2018-05-17T00:55:49.908Z,0.00
2018-05-17T00:56:50.120Z,0.00
2018-05-17T00:57:50.301Z,0.00
2018-05-17T00:58:50.501Z,0.00
2018-05-17T00:59:50.710Z,0.00
2018-05-17T01:00:50.910Z,0.00
2018-05-17T01:01:51.117Z,0.00
2018-05-17T01:02:51.315Z,0.00
2018-05-17T01:03:51.504Z,0.00
2018-05-17T01:04:51.694Z,0.00
2018-05-17T01:05:51.908Z,0.00
2018-05-17T01:06:52.090Z,0.00
2018-05-17T01:07:52.289Z,0.00
2018-05-17T01:08:52.499Z,0.00
2018-05-17T01:09:52.691Z,0.00
2018-05-17T01:10:52.902Z,0.00
2018-05-17T01:11:53.102Z,0.00
2018-05-17T01:12:53.284Z,0.00
2018-05-17T01:13:53.494Z,0.00
2018-05-17T01:14:53.706Z,0.00
2018-05-17T01:15:53.879Z,0.00
2018-05-17T01:16:54.094Z,0.00
2018-05-17T01:17:54.306Z,0.00
2018-05-17T01:18:54.503Z,0.00
2018-05-17T01:19:54.689Z,0.00
2018-05-17T01:20:54.895Z,0.00
2018-05-17T01:21:55.116Z,0.00
2018-05-17T01:22:55.324Z,0.00
2018-05-17T01:23:55.531Z,0.00
2018-05-17T01:24:55.741Z,0.00
2018-05-17T01:25:55.929Z,0.00
2018-05-17T01:26:56.137Z,0.00
2018-05-17T01:27:56.328Z,0.00
2018-05-17T01:28:56.519Z,0.00
2018-05-17T01:29:56.700Z,0.00
2018-05-17T01:30:56.897Z,0.00
2018-05-17T01:31:57.093Z,0.00
2018-05-17T01:32:57.298Z,0.00
2018-05-17T01:33:57.501Z,0.00
2018-05-17T01:34:57.756Z,0.00
2018-05-17T01:35:57.880Z,0.00
2018-05-17T01:36:58.076Z,0.00
2018-05-17T01:37:58.265Z,0.00
2018-05-17T01:38:58.479Z,0.00
2018-05-17T01:39:58.674Z,0.00
2018-05-17T01:40:58.877Z,0.00
2018-05-17T01:41:59.077Z,0.00
2018-05-17T01:42:59.289Z,0.00
2018-05-17T01:43:59.485Z,0.00
2018-05-17T01:44:59.673Z,0.00
2018-05-17T01:45:59.885Z,0.00
2018-05-17T01:47:00.087Z,0.00
2018-05-17T01:48:00.283Z,0.00
2018-05-17T01:49:00.464Z,0.00
2018-05-17T01:50:00.673Z,0.00
2018-05-17T01:51:00.874Z,0.00
2018-05-17T01:53:33.110Z,0.00
2018-05-17T01:54:33.280Z,0.00
2018-05-17T01:55:33.482Z,0.00
2018-05-17T01:56:33.667Z,0.00
2018-05-17T01:57:33.867Z,0.00
2018-05-17T01:58:34.055Z,0.00
2018-05-17T01:59:34.299Z,0.00
2018-05-17T02:00:34.513Z,0.00
2018-05-17T02:01:34.717Z,0.00
2018-05-17T02:02:34.913Z,0.00
2018-05-17T02:03:35.109Z,0.00
2018-05-17T02:04:35.324Z,0.00
2018-05-17T02:05:35.512Z,0.00
2018-05-17T02:06:35.731Z,0.00
2018-05-17T02:07:35.914Z,0.00
2018-05-17T02:08:36.105Z,0.00
2018-05-17T02:09:36.296Z,0.00
2018-05-17T02:10:36.493Z,0.00
2018-05-17T02:11:36.686Z,0.00
2018-05-17T02:12:36.896Z,0.00
2018-05-17T02:13:37.075Z,0.00
2018-05-17T02:14:37.283Z,0.00
2018-05-17T02:15:37.487Z,0.00
2018-05-17T02:16:37.690Z,0.00
2018-05-17T02:17:37.901Z,0.00
2018-05-17T02:18:38.100Z,0.00
2018-05-17T02:19:38.310Z,0.00
2018-05-17T02:20:38.502Z,0.00
2018-05-17T02:21:38.703Z,0.00
2018-05-17T02:22:38.907Z,0.00
2018-05-17T02:23:39.087Z,0.00
2018-05-17T02:24:39.274Z,0.00
2018-05-17T02:25:39.456Z,0.00
2018-05-17T02:26:39.650Z,0.00
2018-05-17T02:27:39.835Z,0.00
2018-05-17T02:28:40.024Z,0.00
2018-05-17T02:29:40.209Z,0.00
2018-05-17T02:30:40.414Z,0.00
2018-05-17T02:31:40.595Z,0.00
2018-05-17T02:32:40.784Z,0.00
2018-05-17T02:33:40.981Z,0.00
2018-05-17T02:36:13.534Z,0.00
2018-05-17T02:37:13.704Z,0.00
2018-05-17T02:38:13.891Z,0.00
2018-05-17T02:39:14.173Z,0.00
2018-05-17T02:40:14.262Z,0.00
2018-05-17T02:41:14.474Z,0.00
2018-05-17T02:42:14.668Z,0.00
2018-05-17T02:43:14.862Z,0.00
2018-05-17T02:44:15.078Z,0.00
2018-05-17T02:45:15.262Z,0.00
2018-05-17T02:46:15.462Z,0.00
2018-05-17T02:47:15.649Z,0.00
2018-05-17T02:48:15.829Z,0.00
2018-05-17T02:49:16.075Z,0.00
2018-05-17T02:50:16.269Z,0.00
2018-05-17T02:51:16.340Z,0.00
2018-05-17T02:52:16.546Z,0.00
2018-05-17T02:53:16.729Z,0.00
2018-05-17T02:54:16.937Z,0.00
2018-05-17T02:55:17.134Z,0.00
2018-05-17T02:56:17.342Z,0.00
2018-05-17T02:57:17.662Z,0.00
2018-05-17T02:58:17.793Z,0.00
2018-05-17T02:59:17.970Z,0.00
2018-05-17T03:00:18.181Z,0.00
2018-05-17T03:01:18.390Z,0.00
2018-05-17T03:02:18.575Z,0.00
2018-05-17T03:03:18.792Z,0.00
2018-05-17T03:04:18.989Z,0.00
2018-05-17T03:05:19.197Z,0.00
2018-05-17T03:06:19.401Z,0.00
2018-05-17T03:07:19.593Z,0.00
2018-05-17T03:08:19.810Z,0.00
2018-05-17T03:09:20.002Z,0.00
2018-05-17T03:10:20.193Z,0.00
2018-05-17T03:11:20.384Z,0.00
2018-05-17T03:12:20.591Z,0.00
2018-05-17T03:13:20.797Z,0.00
2018-05-17T03:14:20.980Z,0.00
2018-05-17T03:15:21.184Z,0.00
2018-05-17T03:16:21.370Z,0.00
2018-05-17T03:17:21.572Z,0.00
2018-05-17T03:18:21.751Z,0.00
2018-05-17T03:19:21.953Z,0.00
2018-05-17T03:20:22.157Z,0.00
2018-05-17T03:21:22.337Z,0.00
2018-05-17T03:22:22.561Z,0.00
2018-05-17T03:23:22.762Z,0.00
2018-05-17T03:24:22.970Z,0.00
2018-05-17T03:25:23.177Z,5.63
2018-05-17T03:26:23.373Z,5.63
2018-05-17T03:27:23.582Z,5.63
2018-05-17T03:29:56.355Z,5.63
2018-05-17T03:30:55.897Z,11.25
2018-05-17T03:31:56.094Z,11.25
2018-05-17T03:32:56.300Z,11.25
2018-05-17T03:33:56.512Z,11.25
2018-05-17T03:34:56.724Z,16.88
2018-05-17T03:35:56.937Z,16.88
2018-05-17T03:36:57.142Z,16.88
2018-05-17T03:37:57.354Z,22.50
2018-05-17T03:38:57.536Z,22.50
2018-05-17T03:39:57.752Z,22.50
2018-05-17T03:40:57.946Z,28.13
2018-05-17T03:41:58.149Z,28.13
2018-05-17T03:42:58.351Z,28.13
2018-05-17T03:43:58.540Z,33.75
2018-05-17T03:44:58.733Z,33.75
2018-05-17T03:45:58.933Z,33.75
2018-05-17T03:46:59.123Z,39.38
2018-05-17T03:47:59.330Z,39.38
2018-05-17T03:48:59.515Z,45.00
2018-05-17T03:49:59.738Z,45.00
2018-05-17T03:50:59.941Z,50.63
2018-05-17T03:53:32.070Z,56.25
2018-05-17T03:54:32.242Z,61.88
2018-05-17T03:55:32.426Z,61.88
2018-05-17T03:56:32.634Z,67.50
2018-05-17T03:57:32.840Z,73.13
2018-05-17T03:58:33.045Z,78.75
2018-05-17T03:59:33.255Z,78.75
2018-05-17T04:00:33.449Z,84.38
2018-05-17T04:01:33.647Z,84.38
2018-05-17T04:02:33.855Z,84.38
2018-05-17T04:03:34.144Z,84.38
2018-05-17T04:04:34.231Z,84.38
2018-05-17T04:05:34.421Z,95.63
2018-05-17T04:06:34.607Z,95.63
2018-05-17T04:07:34.807Z,95.63
2018-05-17T04:08:35.031Z,106.88
2018-05-17T04:09:35.195Z,112.50
2018-05-17T04:10:35.397Z,112.50
2018-05-17T04:11:35.605Z,106.88
2018-05-17T04:12:35.812Z,123.75
2018-05-17T04:13:36.021Z,135.00
2018-05-17T04:14:36.217Z,135.00
2018-05-17T04:15:36.415Z,135.00
2018-05-17T04:16:36.604Z,140.63
2018-05-17T04:17:36.813Z,140.63
2018-05-17T04:18:37.003Z,140.63
2018-05-17T04:19:37.212Z,146.25
2018-05-17T04:20:37.489Z,157.50
2018-05-17T04:21:37.636Z,163.13
2018-05-17T04:22:37.698Z,168.75
2018-05-17T04:23:37.906Z,168.75
2018-05-17T04:24:38.114Z,174.38
2018-05-17T04:25:38.319Z,174.38
2018-05-17T04:26:38.532Z,174.38
2018-05-17T04:27:38.721Z,163.13
2018-05-17T04:28:38.929Z,163.13
2018-05-17T04:29:39.119Z,163.13
2018-05-17T04:30:39.303Z,163.13
2018-05-17T04:31:39.494Z,157.50
2018-05-17T04:32:39.703Z,157.50
2018-05-17T04:33:39.905Z,168.75
2018-05-17T04:34:40.104Z,174.38
2018-05-17T04:35:40.392Z,168.75
2018-05-17T04:36:41.801Z,174.38
2018-05-17T04:37:41.312Z,180.00
2018-05-17T04:38:41.315Z,168.75
2018-05-17T04:39:40.998Z,157.50
2018-05-17T04:40:41.201Z,163.13
2018-05-17T04:43:13.332Z,185.63
2018-05-17T04:44:13.502Z,191.25
2018-05-17T04:45:13.708Z,185.63
2018-05-17T04:46:13.909Z,185.63
2018-05-17T04:47:14.101Z,185.63
2018-05-17T04:48:14.345Z,185.63
2018-05-17T04:49:14.536Z,196.88
2018-05-17T04:50:14.742Z,191.25
2018-05-17T04:51:14.925Z,196.88
2018-05-17T04:52:15.128Z,202.50
2018-05-17T04:53:15.339Z,191.25
2018-05-17T04:54:15.551Z,196.88
2018-05-17T04:55:15.735Z,191.25
2018-05-17T04:56:15.920Z,185.63
2018-05-17T04:57:16.126Z,174.38
2018-05-17T04:58:16.312Z,180.00
2018-05-17T04:59:16.514Z,191.25
2018-05-17T05:00:16.692Z,196.88
2018-05-17T05:01:16.880Z,191.25
2018-05-17T05:02:17.099Z,196.88
2018-05-17T05:03:17.414Z,213.75
2018-05-17T05:04:17.486Z,213.75
2018-05-17T05:05:17.673Z,196.88
2018-05-17T05:06:17.874Z,185.63
2018-05-17T05:07:18.067Z,196.88
2018-05-17T05:08:18.252Z,219.38
2018-05-17T05:09:18.439Z,230.63
2018-05-17T05:10:18.652Z,219.38
2018-05-17T05:11:18.840Z,202.50
2018-05-17T05:12:19.032Z,208.13
2018-05-17T05:13:19.229Z,219.38
2018-05-17T05:14:19.411Z,219.38
2018-05-17T05:15:19.605Z,219.38
2018-05-17T05:16:19.798Z,225.00
2018-05-17T05:17:20.005Z,225.00
2018-05-17T05:18:20.209Z,230.63
2018-05-17T05:19:20.415Z,236.25
2018-05-17T05:20:20.603Z,258.75
2018-05-17T05:21:20.783Z,281.25
2018-05-17T05:22:20.982Z,303.75
2018-05-17T05:23:21.194Z,326.25
2018-05-17T05:24:21.409Z,326.25
2018-05-17T05:25:21.646Z,315.00
2018-05-17T05:26:21.800Z,298.13
2018-05-17T05:27:22.003Z,309.38
2018-05-17T05:28:22.201Z,303.75
2018-05-17T05:29:22.421Z,309.38
2018-05-17T05:30:22.622Z,309.38
2018-05-17T05:31:22.838Z,315.00
2018-05-17T05:32:23.051Z,303.75
2018-05-17T05:33:23.236Z,315.00
2018-05-17T05:35:55.627Z,354.38
2018-05-17T05:36:55.564Z,388.13
2018-05-17T05:37:55.866Z,410.63
2018-05-17T05:38:55.931Z,444.38
2018-05-17T05:39:56.121Z,438.75
2018-05-17T05:40:56.334Z,438.75
2018-05-17T05:41:56.542Z,427.50
2018-05-17T05:42:56.852Z,438.75
2018-05-17T05:43:56.968Z,444.38
2018-05-17T05:44:57.175Z,416.25
2018-05-17T05:45:57.397Z,393.75
2018-05-17T05:46:57.600Z,376.88
2018-05-17T05:47:57.813Z,360.00
2018-05-17T05:48:58.128Z,360.00
2018-05-17T05:49:58.201Z,388.13
2018-05-17T05:50:58.388Z,416.25
2018-05-17T05:51:58.601Z,416.25
2018-05-17T05:52:58.784Z,382.50
2018-05-17T05:53:59.001Z,365.63
2018-05-17T05:54:59.180Z,371.25
2018-05-17T05:55:59.372Z,343.13
2018-05-17T05:56:59.587Z,365.63
2018-05-17T05:57:59.767Z,433.13
2018-05-17T05:58:59.968Z,466.88
2018-05-17T06:00:00.147Z,472.50
2018-05-17T06:01:00.355Z,455.63
2018-05-17T06:02:00.540Z,410.63
2018-05-17T06:03:00.739Z,388.13
2018-05-17T06:04:00.941Z,405.00
2018-05-17T06:05:01.125Z,427.50
2018-05-17T06:06:01.343Z,450.00
2018-05-17T06:07:01.560Z,483.75
2018-05-17T06:08:01.762Z,511.88
2018-05-17T06:09:01.943Z,540.00
2018-05-17T06:10:02.148Z,511.88
2018-05-17T06:11:02.344Z,444.38
2018-05-17T06:12:02.539Z,416.25
2018-05-17T06:13:02.749Z,405.00
2018-05-17T06:14:02.956Z,416.25
2018-05-17T06:15:03.143Z,382.50
2018-05-17T06:16:03.345Z,421.88
2018-05-17T06:17:03.544Z,466.88
2018-05-17T06:18:03.745Z,472.50
2018-05-17T06:19:03.950Z,556.88
2018-05-17T06:20:04.150Z,613.13
2018-05-17T06:21:04.330Z,675.00
2018-05-17T06:22:04.532Z,680.63
2018-05-17T06:23:04.732Z,703.13
2018-05-17T06:24:04.941Z,742.50
2018-05-17T06:25:05.128Z,759.38
2018-05-17T06:26:05.325Z,765.00
2018-05-17T06:27:05.525Z,770.63
2018-05-17T06:28:05.714Z,781.88
2018-05-17T06:29:05.910Z,973.13
2018-05-17T06:30:06.099Z,855.00
2018-05-17T06:31:06.294Z,950.63
2018-05-17T06:32:06.505Z,731.25
2018-05-17T06:33:06.698Z,731.25
2018-05-17T06:34:06.881Z,815.63
2018-05-17T06:35:07.082Z,798.75
2018-05-17T06:36:07.291Z,748.13
2018-05-17T06:37:07.488Z,720.00
2018-05-17T06:38:07.672Z,691.88
2018-05-17T06:39:07.948Z,663.75
2018-05-17T06:40:08.021Z,703.13
2018-05-17T06:41:08.224Z,748.13
2018-05-17T06:42:08.442Z,815.63
2018-05-17T06:43:08.640Z,945.00
2018-05-17T06:44:08.824Z,1023.75
2018-05-17T06:45:09.010Z,928.13
2018-05-17T06:46:09.219Z,1383.75
2018-05-17T06:47:09.413Z,888.75
2018-05-17T06:48:09.601Z,860.63
2018-05-17T06:49:09.813Z,759.38
2018-05-17T06:50:10.005Z,686.25
2018-05-17T06:51:10.223Z,663.75
2018-05-17T06:52:10.428Z,675.00
2018-05-17T06:53:10.640Z,658.13
2018-05-17T06:54:10.845Z,646.88
2018-05-17T06:55:11.044Z,635.63
2018-05-17T06:56:11.236Z,669.38
2018-05-17T06:57:11.450Z,759.38
2018-05-17T06:58:11.662Z,916.88
2018-05-17T06:59:11.850Z,1074.38
2018-05-17T07:00:12.045Z,1777.50
2018-05-17T07:01:12.274Z,2098.13
2018-05-17T07:02:12.436Z,1220.63
2018-05-17T07:03:12.627Z,1051.88
2018-05-17T07:04:12.823Z,1046.25
2018-05-17T07:05:13.007Z,1620.00
2018-05-17T07:06:13.200Z,1276.88
2018-05-17T07:07:13.401Z,1726.88
2018-05-17T07:08:13.613Z,1198.13
2018-05-17T07:09:13.828Z,1400.63
2018-05-17T07:11:45.964Z,1051.88
2018-05-17T07:12:46.150Z,1158.75
2018-05-17T07:13:46.364Z,1738.13
2018-05-17T07:14:46.579Z,1597.50
2018-05-17T07:15:46.790Z,1063.13
2018-05-17T07:16:46.993Z,1057.50
2018-05-17T07:17:47.189Z,1108.13
2018-05-17T07:18:47.710Z,1074.38
2018-05-17T07:19:47.609Z,1479.38
2018-05-17T07:20:47.815Z,1220.63
2018-05-17T07:21:48.031Z,1237.50
2018-05-17T07:22:48.243Z,1681.88
2018-05-17T07:23:48.429Z,1681.88
2018-05-17T07:24:48.620Z,1974.38
2018-05-17T07:25:48.842Z,2176.88
2018-05-17T07:26:49.027Z,2137.50
2018-05-17T07:27:49.220Z,2469.38
2018-05-17T07:28:49.471Z,2171.25
2018-05-17T07:29:49.752Z,2705.63
2018-05-17T07:30:49.860Z,2604.38
2018-05-17T07:31:50.062Z,2655.00
2018-05-17T07:32:50.273Z,2677.50
2018-05-17T07:33:50.500Z,2593.13
2018-05-17T07:36:22.690Z,2514.38
2018-05-17T07:37:22.860Z,2244.38
2018-05-17T07:38:23.049Z,2199.38
2018-05-17T07:39:23.236Z,1946.25
2018-05-17T07:40:23.457Z,2002.50
2018-05-17T07:41:23.677Z,1985.63
2018-05-17T07:42:23.892Z,1698.75
2018-05-17T07:44:56.127Z,2542.50
2018-05-17T07:45:56.181Z,2604.38
2018-05-17T07:46:56.397Z,2559.38
2018-05-17T07:47:56.585Z,2520.00
2018-05-17T07:48:56.789Z,2638.13
2018-05-17T07:49:56.988Z,2818.13
2018-05-17T07:50:57.178Z,2891.25
2018-05-17T07:51:57.378Z,3116.25
2018-05-17T07:52:57.577Z,3431.25
2018-05-17T07:53:57.767Z,3436.88
2018-05-17T07:54:57.975Z,3493.13
2018-05-17T07:55:58.243Z,3414.38
2018-05-17T07:56:58.333Z,3459.38
2018-05-17T07:57:58.519Z,3217.50
2018-05-17T07:58:58.736Z,2913.75
2018-05-17T07:59:58.929Z,2868.75
2018-05-17T08:00:59.145Z,2896.88
2018-05-17T08:01:59.352Z,2992.50
2018-05-17T08:02:59.564Z,2728.13
2018-05-17T08:03:59.767Z,2469.38
2018-05-17T08:04:59.974Z,2401.88
2018-05-17T08:06:00.172Z,2345.63
2018-05-17T08:07:00.488Z,2812.50
2018-05-17T08:08:00.597Z,3296.25
2018-05-17T08:09:00.806Z,2041.88
2018-05-17T08:10:01.012Z,2238.75
2018-05-17T08:11:01.220Z,3245.63
2018-05-17T08:12:01.429Z,2700.00
2018-05-17T08:13:01.637Z,3026.25
2018-05-17T08:14:01.830Z,2311.88
2018-05-17T08:15:02.065Z,2036.25
2018-05-17T08:16:02.241Z,2581.88
2018-05-17T08:17:02.456Z,2446.88
2018-05-17T08:18:02.771Z,2148.75
2018-05-17T08:19:02.886Z,3296.25
2018-05-17T08:20:03.087Z,1878.75
2018-05-17T08:21:03.304Z,1687.50
2018-05-17T08:22:03.487Z,1552.50
2018-05-17T08:23:03.691Z,1726.88
2018-05-17T08:24:03.899Z,2109.38
2018-05-17T08:25:04.182Z,3009.38
2018-05-17T08:26:04.267Z,3155.63
2018-05-17T08:27:04.486Z,2120.63
2018-05-17T08:28:04.686Z,3960.00
2018-05-17T08:29:04.979Z,1828.13
2018-05-17T08:30:05.113Z,1670.63
2018-05-17T08:31:05.307Z,1670.63
2018-05-17T08:32:05.501Z,1867.50
2018-05-17T08:33:05.713Z,2008.13
2018-05-17T08:34:05.921Z,4387.50
2018-05-17T08:35:06.144Z,4308.75
2018-05-17T08:36:06.436Z,4460.63
2018-05-17T08:37:06.512Z,4556.25
2018-05-17T08:38:06.727Z,4511.25
2018-05-17T08:39:06.940Z,3397.50
2018-05-17T08:40:07.181Z,2137.50
2018-05-17T08:41:07.367Z,2958.75
2018-05-17T08:42:07.581Z,2216.25
2018-05-17T08:43:07.783Z,3397.50
2018-05-17T08:44:07.985Z,3729.38
2018-05-17T08:45:08.173Z,3555.00
2018-05-17T08:46:08.392Z,3026.25
2018-05-17T08:47:08.600Z,2581.88
2018-05-17T08:48:08.814Z,2013.75
2018-05-17T08:49:09.042Z,2317.50
2018-05-17T08:50:09.199Z,1906.88
2018-05-17T08:51:09.404Z,1906.88
2018-05-17T08:52:09.608Z,1878.75
2018-05-17T08:53:09.800Z,1805.63
2018-05-17T08:54:10.021Z,1794.38
2018-05-17T08:56:41.860Z,1845.00
2018-05-17T08:57:42.036Z,1985.63
2018-05-17T08:58:42.250Z,1721.25
2018-05-17T08:59:42.462Z,3285.00
2018-05-17T09:00:42.667Z,1783.13
2018-05-17T09:01:42.865Z,1698.75
2018-05-17T09:02:43.051Z,1693.13
2018-05-17T09:03:43.276Z,1777.50
2018-05-17T09:04:43.464Z,2812.50
2018-05-17T09:07:15.286Z,1845.00
2018-05-17T09:08:15.502Z,2182.50
2018-05-17T09:09:15.720Z,1946.25
2018-05-17T09:10:15.921Z,2081.25
2018-05-17T09:11:16.112Z,1935.00
2018-05-17T09:12:16.328Z,2227.50
2018-05-17T09:13:16.532Z,4269.38
2018-05-17T09:14:16.747Z,3656.25
2018-05-17T09:15:16.934Z,3346.88
2018-05-17T09:16:17.147Z,2266.88
2018-05-17T09:17:17.360Z,3780.00
2018-05-17T09:18:17.555Z,3538.13
2018-05-17T09:19:17.857Z,4426.88
2018-05-17T09:20:18.122Z,4612.50
2018-05-17T09:21:18.142Z,4668.75
2018-05-17T09:22:18.360Z,4606.88
2018-05-17T09:23:18.581Z,4685.63
2018-05-17T09:24:18.785Z,4601.25
2018-05-17T09:25:18.997Z,4651.88
2018-05-17T09:26:19.192Z,4455.00
2018-05-17T09:27:19.409Z,4567.50
2018-05-17T09:28:19.605Z,4488.75
2018-05-17T09:29:19.894Z,4432.50
2018-05-17T09:30:19.997Z,4438.13
2018-05-17T09:31:20.214Z,4404.38
2018-05-17T09:32:20.406Z,4477.50
2018-05-17T09:33:20.597Z,4410.00
2018-05-17T09:34:20.799Z,4466.25
2018-05-17T09:35:20.991Z,4488.75
2018-05-17T09:36:21.232Z,4263.75
2018-05-17T09:37:21.445Z,3538.13
2018-05-17T09:38:21.634Z,3076.88
2018-05-17T09:39:21.838Z,3684.38
2018-05-17T09:40:22.051Z,2340.00
2018-05-17T09:41:22.269Z,2081.25
2018-05-17T09:42:22.472Z,1935.00
2018-05-17T09:43:22.679Z,1850.63
2018-05-17T09:44:22.886Z,1800.00
2018-05-17T09:45:23.111Z,1771.88
2018-05-17T09:46:23.330Z,1760.63
2018-05-17T09:47:23.546Z,1755.00
2018-05-17T09:48:23.772Z,1777.50
2018-05-17T09:49:23.984Z,1856.25
2018-05-17T09:50:24.188Z,1878.75
2018-05-17T09:51:24.396Z,1878.75
2018-05-17T09:52:24.597Z,1867.50
2018-05-17T09:53:24.810Z,1918.13
2018-05-17T09:54:25.025Z,2250.00
2018-05-17T09:55:25.237Z,2306.25
2018-05-17T09:56:25.441Z,2975.63
2018-05-17T09:57:25.655Z,3751.88
2018-05-17T09:58:25.860Z,3819.38
2018-05-17T09:59:26.081Z,2806.88
2018-05-17T10:00:26.403Z,3240.00
2018-05-17T10:01:26.502Z,4117.50
2018-05-17T10:02:26.714Z,4033.13
2018-05-17T10:03:26.928Z,3971.25
2018-05-17T10:04:27.154Z,3318.75
2018-05-17T10:05:27.360Z,3425.63
2018-05-17T10:06:27.578Z,3588.75
2018-05-17T10:07:27.770Z,2362.50
2018-05-17T10:08:27.981Z,2199.38
2018-05-17T10:09:28.199Z,3796.88
2018-05-17T10:10:28.411Z,3324.38
2018-05-17T10:11:28.629Z,3375.00
2018-05-17T10:12:28.826Z,3003.75
2018-05-17T10:13:29.027Z,4320.00
2018-05-17T10:14:29.310Z,2176.88
2018-05-17T10:15:29.536Z,2019.38
2018-05-17T10:16:29.635Z,1974.38
2018-05-17T10:17:29.826Z,1935.00
2018-05-17T10:18:30.023Z,1940.63
2018-05-17T10:19:30.227Z,1906.88
2018-05-17T10:20:30.458Z,1822.50
2018-05-17T10:21:30.648Z,1771.88
2018-05-17T10:22:30.840Z,1738.13
2018-05-17T10:23:31.073Z,1693.13
2018-05-17T10:24:31.282Z,1653.75
2018-05-17T10:25:31.542Z,1631.25
2018-05-17T10:26:31.788Z,1597.50
2018-05-17T10:27:31.860Z,1575.00
2018-05-17T10:28:32.064Z,1563.75
2018-05-17T10:29:32.296Z,1546.88
2018-05-17T10:30:32.489Z,1552.50
2018-05-17T10:31:32.684Z,1558.13
2018-05-17T10:32:32.879Z,1563.75
2018-05-17T10:33:33.091Z,1586.25
2018-05-17T10:34:33.304Z,1591.88
2018-05-17T10:35:33.530Z,1608.75
2018-05-17T10:36:33.753Z,1620.00
2018-05-17T10:37:33.961Z,1687.50
2018-05-17T10:38:34.168Z,2750.63
2018-05-17T10:39:34.381Z,2283.75
2018-05-17T10:40:34.597Z,2120.63
2018-05-17T10:41:34.812Z,2115.00
2018-05-17T10:42:35.005Z,2075.63
2018-05-17T10:43:35.210Z,2053.13
2018-05-17T10:44:35.432Z,2041.88
2018-05-17T10:45:35.648Z,2036.25
2018-05-17T10:46:35.864Z,2025.00
2018-05-17T10:47:36.078Z,2036.25
2018-05-17T10:48:36.270Z,2058.75
2018-05-17T10:49:36.467Z,2008.13
2018-05-17T10:50:36.661Z,1985.63
2018-05-17T10:51:36.868Z,2041.88
2018-05-17T10:52:37.060Z,2047.50
2018-05-17T10:53:37.251Z,2064.38
2018-05-17T10:54:37.527Z,2070.00
2018-05-17T10:55:37.671Z,2064.38
2018-05-17T10:56:37.919Z,2058.75
2018-05-17T10:57:38.134Z,2036.25
2018-05-17T10:58:38.321Z,2053.13
2018-05-17T10:59:38.533Z,2041.88
2018-05-17T11:00:38.762Z,1996.88
2018-05-17T11:01:38.951Z,1963.13
2018-05-17T11:02:39.384Z,1935.00
2018-05-17T11:03:39.363Z,1845.00
2018-05-17T11:04:39.582Z,1895.63
2018-05-17T11:05:39.788Z,1850.63
2018-05-17T11:06:39.995Z,1833.75
2018-05-17T11:07:40.192Z,1828.13
2018-05-17T11:08:40.405Z,1816.88
2018-05-17T11:09:40.613Z,1805.63
2018-05-17T11:10:40.819Z,1788.75
2018-05-17T11:11:41.042Z,1811.25
2018-05-17T11:12:41.238Z,1805.63
2018-05-17T11:13:41.431Z,1811.25
2018-05-17T11:14:41.653Z,1811.25
2018-05-17T11:15:41.860Z,1800.00
2018-05-17T11:16:42.078Z,1794.38
2018-05-17T11:17:42.279Z,1788.75
2018-05-17T11:18:42.489Z,1783.13
2018-05-17T11:19:42.671Z,1794.38
2018-05-17T11:20:42.872Z,1800.00
2018-05-17T11:21:43.085Z,1794.38
2018-05-17T11:22:43.281Z,1766.25
2018-05-17T11:23:43.484Z,1693.13
2018-05-17T11:24:43.694Z,1676.25
2018-05-17T11:25:43.897Z,1636.88
2018-05-17T11:26:44.115Z,1642.50
2018-05-17T11:27:44.327Z,1597.50
2018-05-17T11:28:44.524Z,1546.88
2018-05-17T11:29:44.719Z,1591.88
2018-05-17T11:30:44.915Z,1575.00
2018-05-17T11:31:45.137Z,1546.88
2018-05-17T11:32:45.350Z,1501.88
2018-05-17T11:33:45.563Z,1479.38
2018-05-17T11:34:45.766Z,1507.50
2018-05-17T11:35:45.965Z,1535.63
2018-05-17T11:36:46.161Z,1530.00
2018-05-17T11:37:46.371Z,1507.50
2018-05-17T11:38:46.575Z,1445.63
2018-05-17T11:39:46.765Z,1417.50
2018-05-17T11:40:46.955Z,1395.00
2018-05-17T11:41:47.146Z,1383.75
2018-05-17T11:42:47.330Z,1344.38
2018-05-17T11:43:47.541Z,1344.38
2018-05-17T11:44:47.752Z,1316.25
2018-05-17T11:45:47.966Z,1310.63
2018-05-17T11:46:48.180Z,1299.38
2018-05-17T11:47:48.427Z,1282.50
2018-05-17T11:48:48.642Z,1276.88
2018-05-17T11:49:48.837Z,1265.63
2018-05-17T11:50:49.024Z,1260.00
2018-05-17T11:51:49.226Z,1260.00
2018-05-17T11:52:49.411Z,1243.13
2018-05-17T11:53:49.607Z,1237.50
2018-05-17T11:54:49.802Z,1231.88
2018-05-17T11:55:49.991Z,1231.88
2018-05-17T11:56:50.203Z,1243.13
2018-05-17T11:57:50.397Z,1254.38
2018-05-17T11:58:50.591Z,1260.00
2018-05-17T11:59:50.793Z,1248.75
2018-05-17T12:00:51.004Z,1276.88
2018-05-17T12:01:51.227Z,1276.88
2018-05-17T12:02:51.446Z,1282.50
2018-05-17T12:03:51.655Z,1299.38
2018-05-17T12:04:51.851Z,1299.38
2018-05-17T12:05:52.063Z,1316.25
2018-05-17T12:06:52.263Z,1395.00
2018-05-17T12:07:52.479Z,1468.13
2018-05-17T12:08:52.671Z,1490.63
2018-05-17T12:09:52.862Z,1485.00
2018-05-17T12:10:53.064Z,1473.75
2018-05-17T12:11:53.258Z,1434.38
2018-05-17T12:12:53.446Z,1423.13
2018-05-17T12:13:53.660Z,1423.13
2018-05-17T12:14:53.867Z,1428.75
2018-05-17T12:15:54.068Z,1411.88
2018-05-17T12:16:54.285Z,1428.75
2018-05-17T12:17:54.496Z,1434.38
2018-05-17T12:18:54.709Z,1434.38
2018-05-17T12:19:54.946Z,1440.00
2018-05-17T12:20:55.154Z,1445.63
2018-05-17T12:21:55.371Z,1434.38
2018-05-17T12:22:55.676Z,1428.75
2018-05-17T12:23:55.779Z,1428.75
2018-05-17T12:24:55.986Z,1423.13
2018-05-17T12:25:56.189Z,1423.13
2018-05-17T12:26:56.441Z,1428.75
2018-05-17T12:27:56.564Z,1411.88
2018-05-17T12:28:56.756Z,1344.38
2018-05-17T12:29:56.969Z,1366.88
2018-05-17T12:30:57.198Z,1378.13
2018-05-17T12:31:57.480Z,1395.00
2018-05-17T12:32:57.617Z,1400.63
2018-05-17T12:33:57.827Z,1400.63
2018-05-17T12:34:58.040Z,1400.63
2018-05-17T12:35:58.230Z,1389.38
2018-05-17T12:36:58.460Z,1383.75
2018-05-17T12:37:58.665Z,1383.75
2018-05-17T12:38:58.994Z,1372.50
2018-05-17T12:39:59.084Z,1366.88
2018-05-17T12:40:59.274Z,1361.25
2018-05-17T12:41:59.472Z,1361.25
2018-05-17T12:42:59.670Z,1355.63
2018-05-17T12:43:59.878Z,1344.38
2018-05-17T12:45:00.095Z,1333.13
2018-05-17T12:46:00.308Z,1321.88
2018-05-17T12:47:00.610Z,1316.25
2018-05-17T12:48:00.702Z,1305.00
2018-05-17T12:49:00.916Z,1299.38
2018-05-17T12:50:01.129Z,1293.75
2018-05-17T12:51:01.346Z,1293.75
2018-05-17T12:52:01.564Z,1282.50
2018-05-17T12:53:01.755Z,1282.50
2018-05-17T12:54:01.961Z,1276.88